sensor_id;sensor_type;location;lat;lon;timestamp;P1;durP1;ratioP1;P2;durP2;ratioP2
50737;SDS011;36703;48.154;17.126;2022-12-07T00:03:41;13.55;;;7.25;;
50737;SDS011;36703;48.154;17.126;2022-12-07T00:07:45;10.57;;;7.20;;
50737;SDS011;36703;48.154;17.126;2022-12-07T00:15:52;14.60;;;7.15;;
50737;SDS011;36703;48.154;17.126;2022-12-07T00:19:56;10.35;;;6.68;;
50737;SDS011;36703;48.154;17.126;2022-12-07T00:23:58;13.68;;;8.57;;
50737;SDS011;36703;48.154;17.126;2022-12-07T00:28:00;14.88;;;9.25;;
50737;SDS011;36703;48.154;17.126;2022-12-07T00:32:02;18.42;;;10.43;;
50737;SDS011;36703;48.154;17.126;2022-12-07T00:36:05;14.70;;;8.13;;
50737;SDS011;36703;48.154;17.126;2022-12-07T00:40:10;11.55;;;7.32;;
50737;SDS011;36703;48.154;17.126;2022-12-07T00:44:12;11.50;;;7.00;;
50737;SDS011;36703;48.154;17.126;2022-12-07T00:48:14;10.77;;;7.05;;
50737;SDS011;36703;48.154;17.126;2022-12-07T00:52:16;13.65;;;7.32;;
50737;SDS011;36703;48.154;17.126;2022-12-07T01:00:22;11.25;;;6.57;;
50737;SDS011;36703;48.154;17.126;2022-12-07T01:04:23;14.00;;;7.18;;
50737;SDS011;36703;48.154;17.126;2022-12-07T01:08:25;12.00;;;7.53;;
50737;SDS011;36703;48.154;17.126;2022-12-07T01:12:28;11.40;;;6.78;;
50737;SDS011;36703;48.154;17.126;2022-12-07T01:16:30;10.60;;;7.07;;
50737;SDS011;36703;48.154;17.126;2022-12-07T01:20:33;12.00;;;7.35;;
50737;SDS011;36703;48.154;17.126;2022-12-07T01:24:35;11.85;;;7.63;;
50737;SDS011;36703;48.154;17.126;2022-12-07T01:32:38;14.43;;;8.77;;
50737;SDS011;36703;48.154;17.126;2022-12-07T01:36:40;13.07;;;8.38;;
50737;SDS011;36703;48.154;17.126;2022-12-07T01:49:21;31.02;;;18.65;;
50737;SDS011;36703;48.154;17.126;2022-12-07T01:53:36;15.27;;;10.32;;
50737;SDS011;36703;48.154;17.126;2022-12-07T01:57:45;16.38;;;10.10;;
50737;SDS011;36703;48.154;17.126;2022-12-07T02:01:50;16.10;;;10.07;;
50737;SDS011;36703;48.154;17.126;2022-12-07T02:05:54;15.52;;;9.90;;
50737;SDS011;36703;48.154;17.126;2022-12-07T02:09:56;15.73;;;10.15;;
50737;SDS011;36703;48.154;17.126;2022-12-07T02:13:58;15.95;;;10.35;;
50737;SDS011;36703;48.154;17.126;2022-12-07T02:18:01;19.60;;;11.50;;
50737;SDS011;36703;48.154;17.126;2022-12-07T02:22:18;16.25;;;10.43;;
50737;SDS011;36703;48.154;17.126;2022-12-07T02:26:44;19.00;;;10.93;;
50737;SDS011;36703;48.154;17.126;2022-12-07T02:30:54;17.83;;;11.07;;
50737;SDS011;36703;48.154;17.126;2022-12-07T02:39:16;18.55;;;11.93;;
50737;SDS011;36703;48.154;17.126;2022-12-07T02:43:36;18.55;;;11.93;;
50737;SDS011;36703;48.154;17.126;2022-12-07T02:47:53;21.13;;;11.73;;
50737;SDS011;36703;48.154;17.126;2022-12-07T02:51:59;20.20;;;11.98;;
50737;SDS011;36703;48.154;17.126;2022-12-07T02:56:03;18.90;;;12.25;;
50737;SDS011;36703;48.154;17.126;2022-12-07T03:00:28;21.42;;;12.05;;
50737;SDS011;36703;48.154;17.126;2022-12-07T03:04:45;20.92;;;12.88;;
50737;SDS011;36703;48.154;17.126;2022-12-07T03:17:45;19.20;;;12.45;;
50737;SDS011;36703;48.154;17.126;2022-12-07T03:21:54;19.67;;;12.85;;
50737;SDS011;36703;48.154;17.126;2022-12-07T03:26:01;22.52;;;13.98;;
50737;SDS011;36703;48.154;17.126;2022-12-07T03:30:12;23.33;;;13.50;;
50737;SDS011;36703;48.154;17.126;2022-12-07T03:34:34;22.00;;;12.88;;
50737;SDS011;36703;48.154;17.126;2022-12-07T03:38:49;22.40;;;13.95;;
50737;SDS011;36703;48.154;17.126;2022-12-07T03:43:00;24.60;;;14.00;;
50737;SDS011;36703;48.154;17.126;2022-12-07T03:51:34;22.27;;;13.95;;
50737;SDS011;36703;48.154;17.126;2022-12-07T03:55:44;23.35;;;14.20;;
50737;SDS011;36703;48.154;17.126;2022-12-07T03:59:48;21.73;;;14.02;;
50737;SDS011;36703;48.154;17.126;2022-12-07T04:03:50;21.88;;;14.55;;
50737;SDS011;36703;48.154;17.126;2022-12-07T04:07:52;23.23;;;14.65;;
50737;SDS011;36703;48.154;17.126;2022-12-07T04:15:55;23.95;;;14.23;;
50737;SDS011;36703;48.154;17.126;2022-12-07T04:19:56;23.60;;;14.70;;
50737;SDS011;36703;48.154;17.126;2022-12-07T04:23:58;25.00;;;15.05;;
50737;SDS011;36703;48.154;17.126;2022-12-07T04:32:01;24.95;;;14.88;;
50737;SDS011;36703;48.154;17.126;2022-12-07T04:36:03;24.88;;;14.35;;
50737;SDS011;36703;48.154;17.126;2022-12-07T04:40:06;24.42;;;14.85;;
50737;SDS011;36703;48.154;17.126;2022-12-07T04:44:11;24.35;;;14.13;;
50737;SDS011;36703;48.154;17.126;2022-12-07T04:48:15;24.15;;;15.30;;
50737;SDS011;36703;48.154;17.126;2022-12-07T04:52:17;23.17;;;14.43;;
50737;SDS011;36703;48.154;17.126;2022-12-07T04:56:18;21.33;;;13.48;;
50737;SDS011;36703;48.154;17.126;2022-12-07T05:00:20;24.98;;;14.40;;
50737;SDS011;36703;48.154;17.126;2022-12-07T05:04:22;23.15;;;14.95;;
50737;SDS011;36703;48.154;17.126;2022-12-07T05:08:23;23.50;;;14.43;;
50737;SDS011;36703;48.154;17.126;2022-12-07T05:12:25;22.15;;;13.90;;
50737;SDS011;36703;48.154;17.126;2022-12-07T05:16:27;22.05;;;13.88;;
50737;SDS011;36703;48.154;17.126;2022-12-07T05:20:29;22.60;;;13.82;;
50737;SDS011;36703;48.154;17.126;2022-12-07T05:24:30;22.17;;;14.13;;
50737;SDS011;36703;48.154;17.126;2022-12-07T05:32:33;20.17;;;12.80;;
50737;SDS011;36703;48.154;17.126;2022-12-07T05:36:35;24.05;;;14.23;;
50737;SDS011;36703;48.154;17.126;2022-12-07T05:40:36;21.42;;;13.95;;
50737;SDS011;36703;48.154;17.126;2022-12-07T05:44:39;21.60;;;13.93;;
50737;SDS011;36703;48.154;17.126;2022-12-07T05:48:45;22.08;;;13.88;;
50737;SDS011;36703;48.154;17.126;2022-12-07T05:56:48;24.45;;;14.07;;
50737;SDS011;36703;48.154;17.126;2022-12-07T06:00:49;21.13;;;13.15;;
50737;SDS011;36703;48.154;17.126;2022-12-07T06:04:51;21.95;;;14.07;;
50737;SDS011;36703;48.154;17.126;2022-12-07T06:08:52;23.95;;;14.38;;
50737;SDS011;36703;48.154;17.126;2022-12-07T06:12:54;22.35;;;14.10;;
50737;SDS011;36703;48.154;17.126;2022-12-07T06:16:56;24.50;;;13.63;;
50737;SDS011;36703;48.154;17.126;2022-12-07T06:20:57;22.80;;;13.38;;
50737;SDS011;36703;48.154;17.126;2022-12-07T06:24:59;21.27;;;13.07;;
50737;SDS011;36703;48.154;17.126;2022-12-07T06:29:02;22.20;;;12.43;;
50737;SDS011;36703;48.154;17.126;2022-12-07T06:33:03;22.92;;;12.73;;
50737;SDS011;36703;48.154;17.126;2022-12-07T06:37:05;22.95;;;12.68;;
50737;SDS011;36703;48.154;17.126;2022-12-07T06:41:07;24.05;;;12.18;;
50737;SDS011;36703;48.154;17.126;2022-12-07T06:45:09;18.85;;;11.82;;
50737;SDS011;36703;48.154;17.126;2022-12-07T06:49:11;18.83;;;11.25;;
50737;SDS011;36703;48.154;17.126;2022-12-07T06:53:13;21.73;;;11.60;;
50737;SDS011;36703;48.154;17.126;2022-12-07T06:57:15;19.90;;;12.00;;
50737;SDS011;36703;48.154;17.126;2022-12-07T07:01:17;20.20;;;11.68;;
50737;SDS011;36703;48.154;17.126;2022-12-07T07:05:19;21.70;;;11.77;;
50737;SDS011;36703;48.154;17.126;2022-12-07T07:09:23;19.15;;;12.07;;
50737;SDS011;36703;48.154;17.126;2022-12-07T07:13:25;19.73;;;11.50;;
50737;SDS011;36703;48.154;17.126;2022-12-07T07:17:27;17.05;;;10.98;;
50737;SDS011;36703;48.154;17.126;2022-12-07T07:21:29;17.88;;;10.93;;
50737;SDS011;36703;48.154;17.126;2022-12-07T07:25:31;17.88;;;11.10;;
50737;SDS011;36703;48.154;17.126;2022-12-07T07:29:33;19.88;;;11.80;;
50737;SDS011;36703;48.154;17.126;2022-12-07T07:33:34;17.90;;;10.90;;
50737;SDS011;36703;48.154;17.126;2022-12-07T07:37:36;19.65;;;11.00;;
50737;SDS011;36703;48.154;17.126;2022-12-07T07:41:37;17.27;;;9.60;;
50737;SDS011;36703;48.154;17.126;2022-12-07T07:45:39;18.00;;;9.77;;
50737;SDS011;36703;48.154;17.126;2022-12-07T07:49:41;18.42;;;11.13;;
50737;SDS011;36703;48.154;17.126;2022-12-07T07:53:43;18.42;;;10.88;;
50737;SDS011;36703;48.154;17.126;2022-12-07T08:01:45;20.92;;;10.90;;
50737;SDS011;36703;48.154;17.126;2022-12-07T08:05:47;19.52;;;11.27;;
50737;SDS011;36703;48.154;17.126;2022-12-07T08:09:49;19.23;;;10.77;;
50737;SDS011;36703;48.154;17.126;2022-12-07T08:13:50;17.00;;;11.27;;
50737;SDS011;36703;48.154;17.126;2022-12-07T08:21:53;22.52;;;11.27;;
50737;SDS011;36703;48.154;17.126;2022-12-07T08:26:03;21.42;;;11.43;;
50737;SDS011;36703;48.154;17.126;2022-12-07T08:30:07;28.35;;;12.15;;
50737;SDS011;36703;48.154;17.126;2022-12-07T08:34:12;23.77;;;12.40;;
50737;SDS011;36703;48.154;17.126;2022-12-07T08:38:14;19.27;;;11.77;;
50737;SDS011;36703;48.154;17.126;2022-12-07T08:42:16;23.90;;;11.57;;
50737;SDS011;36703;48.154;17.126;2022-12-07T08:46:19;17.85;;;10.50;;
50737;SDS011;36703;48.154;17.126;2022-12-07T08:50:38;25.60;;;11.32;;
50737;SDS011;36703;48.154;17.126;2022-12-07T08:54:40;20.27;;;12.82;;
50737;SDS011;36703;48.154;17.126;2022-12-07T08:58:43;20.95;;;11.48;;
50737;SDS011;36703;48.154;17.126;2022-12-07T09:02:45;19.80;;;11.90;;
50737;SDS011;36703;48.154;17.126;2022-12-07T09:06:47;20.90;;;11.48;;
50737;SDS011;36703;48.154;17.126;2022-12-07T09:10:49;20.92;;;12.40;;
50737;SDS011;36703;48.154;17.126;2022-12-07T09:14:51;20.05;;;11.77;;
50737;SDS011;36703;48.154;17.126;2022-12-07T09:18:53;21.75;;;11.27;;
50737;SDS011;36703;48.154;17.126;2022-12-07T09:22:54;18.10;;;10.50;;
50737;SDS011;36703;48.154;17.126;2022-12-07T09:26:56;19.23;;;11.32;;
50737;SDS011;36703;48.154;17.126;2022-12-07T09:30:58;16.42;;;10.48;;
50737;SDS011;36703;48.154;17.126;2022-12-07T09:35:00;15.75;;;8.63;;
50737;SDS011;36703;48.154;17.126;2022-12-07T09:39:02;15.05;;;8.98;;
50737;SDS011;36703;48.154;17.126;2022-12-07T09:43:10;16.02;;;8.90;;
50737;SDS011;36703;48.154;17.126;2022-12-07T09:47:16;16.02;;;9.95;;
50737;SDS011;36703;48.154;17.126;2022-12-07T09:51:21;19.17;;;10.40;;
50737;SDS011;36703;48.154;17.126;2022-12-07T09:55:25;16.08;;;8.27;;
50737;SDS011;36703;48.154;17.126;2022-12-07T09:59:29;17.05;;;8.93;;
50737;SDS011;36703;48.154;17.126;2022-12-07T10:03:31;14.95;;;8.80;;
50737;SDS011;36703;48.154;17.126;2022-12-07T10:07:33;11.82;;;7.40;;
50737;SDS011;36703;48.154;17.126;2022-12-07T10:11:35;12.38;;;7.63;;
50737;SDS011;36703;48.154;17.126;2022-12-07T10:20:25;10.13;;;5.93;;
50737;SDS011;36703;48.154;17.126;2022-12-07T10:24:28;7.15;;;4.88;;
50737;SDS011;36703;48.154;17.126;2022-12-07T10:28:33;6.93;;;4.63;;
50737;SDS011;36703;48.154;17.126;2022-12-07T10:32:36;17.30;;;10.90;;
50737;SDS011;36703;48.154;17.126;2022-12-07T10:36:38;10.77;;;7.43;;
50737;SDS011;36703;48.154;17.126;2022-12-07T10:40:40;6.32;;;4.07;;
50737;SDS011;36703;48.154;17.126;2022-12-07T10:44:42;8.93;;;4.53;;
50737;SDS011;36703;48.154;17.126;2022-12-07T10:57:46;5.90;;;3.88;;
50737;SDS011;36703;48.154;17.126;2022-12-07T11:06:57;5.78;;;3.65;;
50737;SDS011;36703;48.154;17.126;2022-12-07T11:11:18;4.75;;;3.83;;
50737;SDS011;36703;48.154;17.126;2022-12-07T11:16:13;5.18;;;3.60;;
50737;SDS011;36703;48.154;17.126;2022-12-07T11:38:12;4.93;;;3.70;;
50737;SDS011;36703;48.154;17.126;2022-12-07T11:42:21;6.28;;;4.22;;
50737;SDS011;36703;48.154;17.126;2022-12-07T11:46:35;5.53;;;4.18;;
50737;SDS011;36703;48.154;17.126;2022-12-07T11:50:52;5.32;;;3.95;;
50737;SDS011;36703;48.154;17.126;2022-12-07T11:54:57;5.90;;;3.95;;
50737;SDS011;36703;48.154;17.126;2022-12-07T11:59:08;5.93;;;3.78;;
50737;SDS011;36703;48.154;17.126;2022-12-07T12:03:27;6.95;;;3.13;;
50737;SDS011;36703;48.154;17.126;2022-12-07T12:07:35;6.50;;;3.60;;
50737;SDS011;36703;48.154;17.126;2022-12-07T12:16:14;6.30;;;3.60;;
50737;SDS011;36703;48.154;17.126;2022-12-07T12:25:19;10.48;;;5.72;;
50737;SDS011;36703;48.154;17.126;2022-12-07T12:29:44;6.47;;;3.80;;
50737;SDS011;36703;48.154;17.126;2022-12-07T12:33:55;6.57;;;3.67;;
50737;SDS011;36703;48.154;17.126;2022-12-07T12:42:42;4.30;;;3.22;;
50737;SDS011;36703;48.154;17.126;2022-12-07T12:47:03;8.35;;;3.25;;
50737;SDS011;36703;48.154;17.126;2022-12-07T12:51:41;5.90;;;3.13;;
50737;SDS011;36703;48.154;17.126;2022-12-07T13:00:23;5.80;;;3.10;;
50737;SDS011;36703;48.154;17.126;2022-12-07T13:08:58;5.82;;;2.90;;
50737;SDS011;36703;48.154;17.126;2022-12-07T13:17:09;4.40;;;2.90;;
50737;SDS011;36703;48.154;17.126;2022-12-07T13:25:22;3.50;;;2.70;;
50737;SDS011;36703;48.154;17.126;2022-12-07T13:29:36;5.55;;;2.90;;
50737;SDS011;36703;48.154;17.126;2022-12-07T13:33:39;4.18;;;3.00;;
50737;SDS011;36703;48.154;17.126;2022-12-07T13:37:44;4.68;;;2.90;;
50737;SDS011;36703;48.154;17.126;2022-12-07T13:41:49;29.48;;;13.93;;
50737;SDS011;36703;48.154;17.126;2022-12-07T13:45:57;3.35;;;2.63;;
50737;SDS011;36703;48.154;17.126;2022-12-07T13:50:01;6.15;;;2.92;;
50737;SDS011;36703;48.154;17.126;2022-12-07T13:54:25;5.60;;;2.88;;
50737;SDS011;36703;48.154;17.126;2022-12-07T13:58:27;4.65;;;2.80;;
50737;SDS011;36703;48.154;17.126;2022-12-07T14:02:33;4.80;;;3.33;;
50737;SDS011;36703;48.154;17.126;2022-12-07T14:06:35;4.28;;;3.15;;
50737;SDS011;36703;48.154;17.126;2022-12-07T14:10:55;4.13;;;3.45;;
50737;SDS011;36703;48.154;17.126;2022-12-07T14:14:59;4.65;;;3.15;;
50737;SDS011;36703;48.154;17.126;2022-12-07T14:19:03;5.90;;;3.53;;
50737;SDS011;36703;48.154;17.126;2022-12-07T14:23:21;5.50;;;3.28;;
50737;SDS011;36703;48.154;17.126;2022-12-07T14:27:29;7.80;;;3.67;;
50737;SDS011;36703;48.154;17.126;2022-12-07T14:31:34;7.05;;;3.40;;
50737;SDS011;36703;48.154;17.126;2022-12-07T14:35:36;8.23;;;3.70;;
50737;SDS011;36703;48.154;17.126;2022-12-07T14:39:43;5.38;;;3.00;;
50737;SDS011;36703;48.154;17.126;2022-12-07T14:43:45;5.22;;;3.70;;
50737;SDS011;36703;48.154;17.126;2022-12-07T14:47:47;11.48;;;5.03;;
50737;SDS011;36703;48.154;17.126;2022-12-07T14:51:49;5.40;;;3.53;;
50737;SDS011;36703;48.154;17.126;2022-12-07T14:55:50;5.97;;;3.70;;
50737;SDS011;36703;48.154;17.126;2022-12-07T14:59:52;5.13;;;3.60;;
50737;SDS011;36703;48.154;17.126;2022-12-07T15:03:54;7.80;;;4.10;;
50737;SDS011;36703;48.154;17.126;2022-12-07T15:07:55;5.13;;;3.83;;
50737;SDS011;36703;48.154;17.126;2022-12-07T15:11:57;6.38;;;4.10;;
50737;SDS011;36703;48.154;17.126;2022-12-07T15:15:59;6.50;;;4.18;;
50737;SDS011;36703;48.154;17.126;2022-12-07T15:20:01;8.82;;;4.30;;
50737;SDS011;36703;48.154;17.126;2022-12-07T15:24:04;7.97;;;4.72;;
50737;SDS011;36703;48.154;17.126;2022-12-07T15:28:06;7.10;;;4.38;;
50737;SDS011;36703;48.154;17.126;2022-12-07T15:32:08;7.55;;;4.65;;
50737;SDS011;36703;48.154;17.126;2022-12-07T15:36:15;7.20;;;4.63;;
50737;SDS011;36703;48.154;17.126;2022-12-07T15:40:22;9.20;;;4.82;;
50737;SDS011;36703;48.154;17.126;2022-12-07T15:44:23;6.88;;;4.78;;
50737;SDS011;36703;48.154;17.126;2022-12-07T15:48:45;9.00;;;5.20;;
50737;SDS011;36703;48.154;17.126;2022-12-07T15:52:50;8.27;;;5.10;;
50737;SDS011;36703;48.154;17.126;2022-12-07T15:56:55;7.68;;;5.18;;
50737;SDS011;36703;48.154;17.126;2022-12-07T16:00:57;7.13;;;4.97;;
50737;SDS011;36703;48.154;17.126;2022-12-07T16:04:58;8.55;;;5.35;;
50737;SDS011;36703;48.154;17.126;2022-12-07T16:09:00;25.48;;;15.13;;
50737;SDS011;36703;48.154;17.126;2022-12-07T16:13:02;51.40;;;31.05;;
50737;SDS011;36703;48.154;17.126;2022-12-07T16:17:04;15.85;;;8.65;;
50737;SDS011;36703;48.154;17.126;2022-12-07T16:21:07;9.43;;;5.70;;
50737;SDS011;36703;48.154;17.126;2022-12-07T16:25:09;9.38;;;5.82;;
50737;SDS011;36703;48.154;17.126;2022-12-07T16:29:11;9.85;;;5.65;;
50737;SDS011;36703;48.154;17.126;2022-12-07T16:33:13;11.27;;;6.30;;
50737;SDS011;36703;48.154;17.126;2022-12-07T16:37:15;10.80;;;5.63;;
50737;SDS011;36703;48.154;17.126;2022-12-07T16:41:16;8.70;;;5.57;;
50737;SDS011;36703;48.154;17.126;2022-12-07T16:45:18;7.82;;;5.63;;
50737;SDS011;36703;48.154;17.126;2022-12-07T16:49:20;7.47;;;5.60;;
50737;SDS011;36703;48.154;17.126;2022-12-07T16:53:22;9.65;;;6.15;;
50737;SDS011;36703;48.154;17.126;2022-12-07T16:57:24;11.05;;;5.85;;
50737;SDS011;36703;48.154;17.126;2022-12-07T17:01:26;8.68;;;5.53;;
50737;SDS011;36703;48.154;17.126;2022-12-07T17:05:29;11.95;;;6.00;;
50737;SDS011;36703;48.154;17.126;2022-12-07T17:09:31;9.63;;;5.93;;
50737;SDS011;36703;48.154;17.126;2022-12-07T17:13:33;8.20;;;5.47;;
50737;SDS011;36703;48.154;17.126;2022-12-07T17:17:53;10.70;;;6.65;;
50737;SDS011;36703;48.154;17.126;2022-12-07T17:21:58;9.93;;;6.32;;
50737;SDS011;36703;48.154;17.126;2022-12-07T17:26:04;10.45;;;6.53;;
50737;SDS011;36703;48.154;17.126;2022-12-07T17:30:11;18.63;;;7.75;;
50737;SDS011;36703;48.154;17.126;2022-12-07T17:34:14;11.68;;;6.47;;
50737;SDS011;36703;48.154;17.126;2022-12-07T17:38:16;11.13;;;7.15;;
50737;SDS011;36703;48.154;17.126;2022-12-07T17:42:18;16.20;;;7.07;;
50737;SDS011;36703;48.154;17.126;2022-12-07T17:46:40;10.98;;;6.68;;
50737;SDS011;36703;48.154;17.126;2022-12-07T17:50:42;11.02;;;6.68;;
50737;SDS011;36703;48.154;17.126;2022-12-07T17:55:02;12.50;;;6.80;;
50737;SDS011;36703;48.154;17.126;2022-12-07T17:59:04;14.15;;;7.05;;
50737;SDS011;36703;48.154;17.126;2022-12-07T18:03:06;9.15;;;6.35;;
50737;SDS011;36703;48.154;17.126;2022-12-07T18:07:10;10.30;;;6.57;;
50737;SDS011;36703;48.154;17.126;2022-12-07T18:11:12;14.13;;;7.32;;
50737;SDS011;36703;48.154;17.126;2022-12-07T18:15:13;11.13;;;6.55;;
50737;SDS011;36703;48.154;17.126;2022-12-07T18:19:15;11.35;;;7.20;;
50737;SDS011;36703;48.154;17.126;2022-12-07T18:23:17;17.15;;;10.80;;
50737;SDS011;36703;48.154;17.126;2022-12-07T18:27:20;10.55;;;6.95;;
50737;SDS011;36703;48.154;17.126;2022-12-07T18:31:22;11.45;;;6.65;;
50737;SDS011;36703;48.154;17.126;2022-12-07T18:35:23;12.43;;;6.82;;
50737;SDS011;36703;48.154;17.126;2022-12-07T18:39:25;13.77;;;7.53;;
50737;SDS011;36703;48.154;17.126;2022-12-07T18:43:27;10.93;;;7.15;;
50737;SDS011;36703;48.154;17.126;2022-12-07T18:47:28;12.35;;;6.65;;
50737;SDS011;36703;48.154;17.126;2022-12-07T18:51:30;10.57;;;6.90;;
50737;SDS011;36703;48.154;17.126;2022-12-07T18:55:32;10.65;;;7.07;;
50737;SDS011;36703;48.154;17.126;2022-12-07T18:59:34;11.70;;;7.68;;
50737;SDS011;36703;48.154;17.126;2022-12-07T19:03:48;11.05;;;6.15;;
50737;SDS011;36703;48.154;17.126;2022-12-07T19:07:49;11.65;;;7.05;;
50737;SDS011;36703;48.154;17.126;2022-12-07T19:11:51;11.10;;;6.75;;
50737;SDS011;36703;48.154;17.126;2022-12-07T19:15:54;12.00;;;6.85;;
50737;SDS011;36703;48.154;17.126;2022-12-07T19:19:56;11.25;;;7.78;;
50737;SDS011;36703;48.154;17.126;2022-12-07T19:23:57;25.67;;;14.25;;
50737;SDS011;36703;48.154;17.126;2022-12-07T19:27:59;13.80;;;8.20;;
50737;SDS011;36703;48.154;17.126;2022-12-07T19:32:01;13.50;;;7.55;;
50737;SDS011;36703;48.154;17.126;2022-12-07T19:36:04;13.43;;;8.15;;
50737;SDS011;36703;48.154;17.126;2022-12-07T19:40:07;12.52;;;7.70;;
50737;SDS011;36703;48.154;17.126;2022-12-07T19:44:10;13.27;;;7.93;;
50737;SDS011;36703;48.154;17.126;2022-12-07T19:48:12;11.65;;;7.60;;
50737;SDS011;36703;48.154;17.126;2022-12-07T19:52:14;13.52;;;7.70;;
50737;SDS011;36703;48.154;17.126;2022-12-07T19:56:19;11.70;;;7.38;;
50737;SDS011;36703;48.154;17.126;2022-12-07T20:00:22;12.75;;;7.68;;
50737;SDS011;36703;48.154;17.126;2022-12-07T20:04:24;14.48;;;7.88;;
50737;SDS011;36703;48.154;17.126;2022-12-07T20:08:30;11.98;;;7.40;;
50737;SDS011;36703;48.154;17.126;2022-12-07T20:12:31;11.77;;;7.40;;
50737;SDS011;36703;48.154;17.126;2022-12-07T20:16:51;14.75;;;7.38;;
50737;SDS011;36703;48.154;17.126;2022-12-07T20:20:57;66.45;;;36.05;;
50737;SDS011;36703;48.154;17.126;2022-12-07T20:24:59;13.35;;;7.60;;
50737;SDS011;36703;48.154;17.126;2022-12-07T20:29:04;12.27;;;7.63;;
50737;SDS011;36703;48.154;17.126;2022-12-07T20:33:11;12.70;;;7.40;;
50737;SDS011;36703;48.154;17.126;2022-12-07T20:37:12;11.45;;;6.95;;
50737;SDS011;36703;48.154;17.126;2022-12-07T20:41:14;12.95;;;7.78;;
50737;SDS011;36703;48.154;17.126;2022-12-07T20:45:34;11.13;;;7.30;;
50737;SDS011;36703;48.154;17.126;2022-12-07T20:49:35;12.23;;;6.80;;
50737;SDS011;36703;48.154;17.126;2022-12-07T20:53:37;16.35;;;7.53;;
50737;SDS011;36703;48.154;17.126;2022-12-07T20:57:39;12.40;;;6.90;;
50737;SDS011;36703;48.154;17.126;2022-12-07T21:01:41;9.35;;;6.25;;
50737;SDS011;36703;48.154;17.126;2022-12-07T21:05:43;10.15;;;6.82;;
50737;SDS011;36703;48.154;17.126;2022-12-07T21:13:46;24.55;;;13.35;;
50737;SDS011;36703;48.154;17.126;2022-12-07T21:17:48;18.13;;;10.70;;
50737;SDS011;36703;48.154;17.126;2022-12-07T21:21:50;11.70;;;7.15;;
50737;SDS011;36703;48.154;17.126;2022-12-07T21:25:52;11.50;;;6.28;;
50737;SDS011;36703;48.154;17.126;2022-12-07T21:29:53;14.18;;;6.93;;
50737;SDS011;36703;48.154;17.126;2022-12-07T21:37:56;12.38;;;7.05;;
50737;SDS011;36703;48.154;17.126;2022-12-07T21:45:59;12.90;;;6.80;;
50737;SDS011;36703;48.154;17.126;2022-12-07T21:50:01;12.60;;;6.28;;
50737;SDS011;36703;48.154;17.126;2022-12-07T21:54:03;11.02;;;6.45;;
50737;SDS011;36703;48.154;17.126;2022-12-07T21:58:05;12.93;;;7.32;;
50737;SDS011;36703;48.154;17.126;2022-12-07T22:02:09;9.57;;;6.45;;
50737;SDS011;36703;48.154;17.126;2022-12-07T22:06:14;12.75;;;6.65;;
50737;SDS011;36703;48.154;17.126;2022-12-07T22:10:27;12.20;;;7.20;;
50737;SDS011;36703;48.154;17.126;2022-12-07T22:14:29;13.02;;;7.28;;
50737;SDS011;36703;48.154;17.126;2022-12-07T22:18:49;10.18;;;6.47;;
50737;SDS011;36703;48.154;17.126;2022-12-07T22:22:52;12.70;;;7.13;;
50737;SDS011;36703;48.154;17.126;2022-12-07T22:26:54;12.75;;;6.47;;
50737;SDS011;36703;48.154;17.126;2022-12-07T22:31:00;17.23;;;8.88;;
50737;SDS011;36703;48.154;17.126;2022-12-07T22:35:07;10.18;;;6.00;;
50737;SDS011;36703;48.154;17.126;2022-12-07T22:39:09;9.95;;;6.18;;
50737;SDS011;36703;48.154;17.126;2022-12-07T22:43:10;10.30;;;5.78;;
50737;SDS011;36703;48.154;17.126;2022-12-07T22:51:18;23.80;;;14.15;;
50737;SDS011;36703;48.154;17.126;2022-12-07T22:55:24;11.88;;;5.93;;
50737;SDS011;36703;48.154;17.126;2022-12-07T22:59:26;11.10;;;6.53;;
50737;SDS011;36703;48.154;17.126;2022-12-07T23:07:29;9.15;;;6.10;;
50737;SDS011;36703;48.154;17.126;2022-12-07T23:11:30;11.93;;;6.88;;
50737;SDS011;36703;48.154;17.126;2022-12-07T23:15:53;10.77;;;6.82;;
50737;SDS011;36703;48.154;17.126;2022-12-07T23:19:55;12.07;;;6.80;;
50737;SDS011;36703;48.154;17.126;2022-12-07T23:23:56;12.07;;;7.57;;
50737;SDS011;36703;48.154;17.126;2022-12-07T23:27:58;12.85;;;7.70;;
50737;SDS011;36703;48.154;17.126;2022-12-07T23:40:11;12.30;;;7.43;;
50737;SDS011;36703;48.154;17.126;2022-12-07T23:44:13;11.60;;;6.90;;
50737;SDS011;36703;48.154;17.126;2022-12-07T23:48:15;13.40;;;7.05;;
50737;SDS011;36703;48.154;17.126;2022-12-07T23:52:16;25.60;;;15.18;;
50737;SDS011;36703;48.154;17.126;2022-12-07T23:56:19;13.77;;;8.30;;
